Alaskan Frontier — WDB7815 — position and weather

sailwx.info

Track history (hours):
 
Tides and Currents Weather Stations Pressure Air Temp Water Temp Dewpoint Dewpoint Depression Visibility Wind Speed Wind Dir Waves Ship Positions

Alaskan Frontier

Owner: ALASKA TANKER COMPANY, Beaverton, OR. More information available from US FCC via Universal Licensing System and Coast Guard Vessel Documentation Center.

Last reported at 2018-Apr-26 10:56 UTC. Time now 2018-Apr-26 11:15 UTC.
Position N 48°36' W 122°34'.

Type: Tanker. MMSI: 366948190.

Date/timePositionNaut miles runAvg speedWind from/ knotsBaromVisibWave heightAir tempDewpointWater temp
2018-Apr-26 10:56N 48°36' W 122°34'0 0.2
2018-Apr-26 10:26N 48°36' W 122°34'0 0.2
2018-Apr-26 09:47N 48°36' W 122°34'0 0.1
2018-Apr-26 09:23N 48°36' W 122°34'0 0.1
2018-Apr-26 08:38N 48°36' W 122°34'0 0.1
2018-Apr-26 08:17N 48°36' W 122°34'0 0.1
2018-Apr-26 07:59N 48°36' W 122°34'0 0.1
2018-Apr-26 07:29N 48°36' W 122°34'0 0.1
2018-Apr-26 06:59N 48°36' W 122°34'0 0.0
2018-Apr-26 06:29N 48°36' W 122°34'0 0.0
2018-Apr-26 05:53N 48°36' W 122°34'0 0.1
2018-Apr-26 05:29N 48°36' W 122°34'0 0.1
2018-Apr-26 04:59N 48°36' W 122°34'0 0.1
2018-Apr-26 04:29N 48°36' W 122°34'0 0.1
2018-Apr-26 03:53N 48°36' W 122°34'0 0.0
2018-Apr-26 03:29N 48°36' W 122°34'0 0.1
2018-Apr-26 02:59N 48°36' W 122°34'0 0.0
2018-Apr-26 02:29N 48°36' W 122°34'0 0.0
2018-Apr-26 01:53N 48°36' W 122°34'0 0.0
2018-Apr-26 01:29N 48°36' W 122°34'0 0.0
2018-Apr-26 00:59N 48°36' W 122°34'0 0.1
2018-Apr-26 00:26N 48°36' W 122°34'0 0.0
2018-Apr-25 23:59N 48°36' W 122°34'0 0.0
2018-Apr-25 23:02N 48°36' W 122°34'0 0.3
2018-Apr-25 22:53N 48°36' W 122°34'0 0.1
2018-Apr-25 22:23N 48°36' W 122°34'0 0.1
2018-Apr-25 21:53N 48°36' W 122°34'0 0.0
2018-Apr-25 21:29N 48°36' W 122°34'0 0.0
2018-Apr-25 20:59N 48°36' W 122°34'0 0.0
2018-Apr-25 20:29N 48°36' W 122°34'0 0.0
2018-Apr-25 19:59N 48°36' W 122°34'0 0.0
2018-Apr-25 19:29N 48°36' W 122°34'0 0.0
2018-Apr-25 18:56N 48°36' W 122°34'0 0.0
2018-Apr-25 18:29N 48°36' W 122°34'0 0.1
2018-Apr-25 17:59N 48°36' W 122°34'0 0.1
2018-Apr-25 17:02N 48°36' W 122°34'0 0.0
2018-Apr-25 16:47N 48°36' W 122°34'0 0.0
2018-Apr-25 16:29N 48°36' W 122°34'0 0.1
2018-Apr-25 15:59N 48°36' W 122°34'0 0.1
2018-Apr-25 15:23N 48°36' W 122°34'0 0.1
2018-Apr-25 14:56N 48°36' W 122°34'0 0.0
2018-Apr-25 14:26N 48°36' W 122°34'0 0.0
2018-Apr-25 13:59N 48°36' W 122°34'0 0.0
2018-Apr-25 13:23N 48°36' W 122°34'0 0.0
2018-Apr-25 12:53N 48°36' W 122°34'0 0.0
2018-Apr-25 12:29N 48°36' W 122°34'0 0.1
2018-Apr-25 11:59N 48°36' W 122°34'0 0.0
2018-Apr-25 11:29N 48°36' W 122°34'0 0.1
2018-Apr-25 10:59N 48°36' W 122°34'0 0.1
2018-Apr-25 10:29N 48°36' W 122°34'0 0.2
2018-Apr-25 09:59N 48°36' W 122°34'0 0.2
2018-Apr-25 09:26N 48°36' W 122°34'0 0.3
2018-Apr-25 08:44N 48°36' W 122°34'0 0.0
2018-Apr-25 08:20N 48°36' W 122°34'0 0.2
2018-Apr-25 07:44N 48°36' W 122°34'0 0.3
2018-Apr-25 07:29N 48°36' W 122°34'0 0.2
2018-Apr-25 06:53N 48°36' W 122°34'0 0.2
2018-Apr-25 06:29N 48°36' W 122°34'0 0.1
2018-Apr-25 05:59N 48°36' W 122°34'0 0.1
2018-Apr-25 05:23N 48°36' W 122°34'0 0.0
2018-Apr-25 04:59N 48°36' W 122°34'0 0.1
2018-Apr-25 04:11N 48°36' W 122°34'0 0.0
2018-Apr-25 03:59N 48°36' W 122°34'0 0.4
2018-Apr-25 03:29N 48°36' W 122°34'0 1.0
2018-Apr-25 03:00N 48°37' W 122°35'3 5.6
2018-Apr-25 02:30N 48°38' W 122°38'4 8.4
2018-Apr-25 02:00N 48°37' W 122°45'5 9.7
2018-Apr-25 01:30N 48°32' W 122°45'5 9.5
2018-Apr-25 01:00N 48°28' W 122°45'4 8.4
2018-Apr-25 00:30N 48°24' W 122°48'611.3
2018-Apr-25 00:00N 48°21' W 122°55'711.3
2018-Apr-24 23:24N 48°17' W 123°04'612.6
2018-Apr-24 22:54N 48°14' W 123°12'613.5
2018-Apr-24 22:26N 48°11' W 123°20'7 9.7
2018-Apr-24 21:41N 48°13' W 123°31'512.5
2018-Apr-24 21:19N 48°13' W 123°38'413.4
2018-Apr-24 20:59N 48°13' W 123°44'713.7
2018-Apr-24 20:30N 48°13' W 123°54'713.9
2018-Apr-24 20:00N 48°16' W 124°04'714.2
2018-Apr-24 19:30N 48°19' W 124°13'714.3
2018-Apr-24 19:00N 48°22' W 124°23'714.1
2018-Apr-24 18:30N 48°25' W 124°33'713.6
2018-Apr-24 18:00N 48°28' W 124°42'713.3
2018-Apr-24 17:30N 48°28' W 124°52'713.8
2018-Apr-24 16:59N 48°28' W 125°03'714.2
2018-Apr-24 16:30N 48°28' W 125°14'714.0
2018-Apr-24 16:00N 48°25' W 125°23'714.0
2018-Apr-24 15:30N 48°22' W 125°32'713.7
2018-Apr-24 15:00N 48°19' W 125°42'714.2
2018-Apr-24 14:30N 48°14' W 125°50'714.1
2018-Apr-24 14:00N 48°09' W 125°56'1013.7
2018-Apr-24 13:17N 47°59' W 125°56'515.5
2018-Apr-24 12:59N 47°54' W 125°56'2115.4
2018-Apr-24 11:39N 47°33' W 125°56'215.5
2018-Apr-24 11:31N 47°31' W 125°56'1115.3
2018-Apr-24 10:45N 47°20' W 125°56'515.2
2018-Apr-24 10:28N 47°15' W 125°56'715.1
2018-Apr-24 10:00N 47°08' W 125°56'714.9
2018-Apr-24 09:30N 47°01' W 125°56'714.7
2018-Apr-24 09:00N 46°53' W 125°56'714.5
2018-Apr-24 08:30N 46°46' W 125°56'714.4
2018-Apr-24 08:00N 46°39' W 125°56'714.5
2018-Apr-24 07:30N 46°32' W 125°56'714.5
2018-Apr-24 07:01N 46°25' W 125°56'714.6
2018-Apr-24 06:31N 46°17' W 125°56'714.6
2018-Apr-24 06:00N 46°10' W 125°56'714.3
2018-Apr-24 05:30N 46°03' W 125°57'714.3
2018-Apr-24 05:01N 45°56' W 125°58'814.1
2018-Apr-24 04:26N 45°48' W 125°57'614.2
2018-Apr-24 04:01N 45°42' W 125°56'714.4
2018-Apr-24 03:30N 45°34' W 125°56'714.4
2018-Apr-24 03:00N 45°27' W 125°56'714.5
2018-Apr-24 02:31N 45°20' W 125°56'714.7
2018-Apr-24 02:00N 45°13' W 125°56'714.8
2018-Apr-24 01:30N 45°05' W 125°56'1015.0
2018-Apr-24 00:52N 44°56' W 125°56'514.9
2018-Apr-24 00:30N 44°50' W 125°56'815.2
2018-Apr-24 00:01N 44°43' W 125°56'815.2
2018-Apr-23 23:31N 44°35' W 125°56'16114.0
2018-Apr-23 12:00N 41°54' W 125°54'1615.0 020 / 341014.610.8 11.0 9.011.5
2018-Apr-23 10:56N 41°38' W 125°56'19012.0
2018-Apr-22 19:08N 38°32' W 125°11'1111.6
2018-Apr-22 18:14N 38°22' W 125°07'311.3
2018-Apr-22 18:00N 38°19' W 125°06'611.5
2018-Apr-22 17:30N 38°14' W 125°04'611.2
2018-Apr-22 16:59N 38°08' W 125°01'611.5
2018-Apr-22 16:30N 38°03' W 124°58'611.6
2018-Apr-22 16:00N 37°58' W 124°54'711.7
2018-Apr-22 15:24N 37°52' W 124°50'512.0
2018-Apr-22 15:00N 37°48' W 124°47'612.0
2018-Apr-22 14:30N 37°43' W 124°43'611.7
2018-Apr-22 14:00N 37°38' W 124°39'611.4
2018-Apr-22 13:30N 37°33' W 124°36'611.9
2018-Apr-22 13:00N 37°28' W 124°32'612.0
2018-Apr-22 12:30N 37°23' W 124°28'612.1
2018-Apr-22 12:00N 37°17' W 124°25'8485.6
2018-Apr-22 12:00N 37°24' W 124°30'1428.8 1015.710.8 14.012.012.0
2018-Apr-22 11:30N 37°12' W 124°21'612.2
2018-Apr-22 11:00N 37°07' W 124°17'612.1
2018-Apr-22 10:30N 37°01' W 124°13'712.4
2018-Apr-22 09:58N 36°56' W 124°09'611.9
2018-Apr-22 09:27N 36°50' W 124°05'511.8
2018-Apr-22 09:00N 36°46' W 124°02'612.1
2018-Apr-22 08:30N 36°41' W 123°58'612.1
2018-Apr-22 07:59N 36°35' W 123°55'612.4
2018-Apr-22 07:30N 36°30' W 123°51'612.8
2018-Apr-22 07:00N 36°24' W 123°47'612.4
2018-Apr-22 06:30N 36°19' W 123°43'612.4
2018-Apr-22 06:00N 36°14' W 123°39'612.2
2018-Apr-22 05:30N 36°09' W 123°35'612.0
2018-Apr-22 05:00N 36°04' W 123°31'612.4
2018-Apr-22 04:30N 35°59' W 123°26'612.4
2018-Apr-22 04:00N 35°54' W 123°21'711.3
2018-Apr-22 03:26N 35°48' W 123°19'511.6
2018-Apr-22 03:00N 35°43' W 123°18'713.0
2018-Apr-22 02:29N 35°37' W 123°14'613.3
2018-Apr-22 02:00N 35°31' W 123°10'913.0
2018-Apr-22 01:20N 35°24' W 123°04'412.8
2018-Apr-22 01:00N 35°20' W 123°01'712.5
2018-Apr-22 00:26N 35°15' W 122°56'510.6
2018-Apr-21 23:58N 35°11' W 122°53'510.6
2018-Apr-21 23:30N 35°07' W 122°49'610.7
2018-Apr-21 22:54N 35°01' W 122°45'410.6
2018-Apr-21 22:30N 34°58' W 122°42'710.9
2018-Apr-21 21:52N 34°52' W 122°37'411.1
2018-Apr-21 21:30N 34°49' W 122°34'611.1
2018-Apr-21 21:01N 34°45' W 122°30'3197.4
2018-Apr-21 21:00N 34°48' W 122°30'817.6 360 / 191017.9 5.4 13.9 14.4
2018-Apr-21 20:30N 34°40' W 122°26'611.1
2018-Apr-21 20:00N 34°36' W 122°22'611.2
2018-Apr-21 19:30N 34°31' W 122°18'611.2
2018-Apr-21 19:00N 34°26' W 122°14'1511.8
2018-Apr-21 17:46N 34°15' W 122°04'411.9
2018-Apr-21 17:23N 34°11' W 122°01'512.0
2018-Apr-21 16:59N 34°07' W 121°57'612.0
2018-Apr-21 16:30N 34°02' W 121°53'712.5
2018-Apr-21 15:58N 33°57' W 121°49'613.7
2018-Apr-21 15:30N 33°52' W 121°44'713.6
2018-Apr-21 15:00N 33°46' W 121°39'713.1
2018-Apr-21 14:30N 33°41' W 121°34'714.0
2018-Apr-21 14:00N 33°41' W 121°26'714.0
2018-Apr-21 13:30N 33°41' W 121°18'714.0
2018-Apr-21 13:00N 33°41' W 121°09'713.9
2018-Apr-21 12:29N 33°41' W 121°00'713.7
2018-Apr-21 12:00N 33°41' W 120°53'713.4
2018-Apr-21 11:30N 33°41' W 120°45'713.9
2018-Apr-21 10:59N 33°41' W 120°36'714.0
2018-Apr-21 10:29N 33°41' W 120°28'714.2
2018-Apr-21 10:00N 33°41' W 120°19'814.1
2018-Apr-21 09:28N 33°41' W 120°10'715.0
2018-Apr-21 08:59N 33°41' W 120°01'815.4
2018-Apr-21 08:28N 33°41' W 119°52'815.5
2018-Apr-21 07:59N 33°41' W 119°43'815.3
2018-Apr-21 07:29N 33°41' W 119°34'715.8
2018-Apr-21 07:01N 33°41' W 119°25'815.6
2018-Apr-21 06:30N 33°41' W 119°15'815.2
2018-Apr-21 06:01N 33°41' W 119°06'612.1
2018-Apr-21 05:30N 33°41' W 118°59'611.7
2018-Apr-21 04:58N 33°41' W 118°51'612.0
2018-Apr-21 04:29N 33°40' W 118°44'612.0
2018-Apr-21 04:00N 33°39' W 118°38'611.6
2018-Apr-21 03:30N 33°39' W 118°31'612.0
2018-Apr-21 02:59N 33°38' W 118°23'611.8
2018-Apr-21 02:30N 33°38' W 118°17'5 9.6
2018-Apr-21 02:00N 33°41' W 118°11'3 6.2
2018-Apr-21 01:30N 33°44' W 118°12'0 0.8
2018-Apr-21 00:58N 33°44' W 118°13'0 0.0
2018-Apr-21 00:28N 33°44' W 118°13'0 0.0
2018-Apr-20 23:58N 33°44' W 118°13'0 0.0
2018-Apr-20 23:28N 33°44' W 118°13'0 0.0
2018-Apr-20 22:58N 33°44' W 118°13'0 0.0
2018-Apr-20 22:28N 33°44' W 118°13'0 0.1
2018-Apr-20 21:58N 33°44' W 118°13'0 0.0
2018-Apr-20 21:28N 33°44' W 118°13'0 0.1
2018-Apr-20 20:58N 33°44' W 118°13'0 0.1
2018-Apr-20 20:28N 33°44' W 118°13'0 0.0
2018-Apr-20 19:55N 33°44' W 118°13'0 0.3
2018-Apr-20 19:25N 33°44' W 118°13'0 0.0
2018-Apr-20 18:58N 33°44' W 118°13'0 0.3
2018-Apr-20 18:28N 33°44' W 118°13'0 0.1
2018-Apr-20 17:58N 33°44' W 118°13'0 0.0
2018-Apr-20 17:28N 33°44' W 118°13'0 0.0
2018-Apr-20 16:58N 33°44' W 118°13'0 0.0
2018-Apr-20 16:28N 33°44' W 118°13'0 0.0
2018-Apr-20 15:58N 33°44' W 118°13'0 0.0
2018-Apr-20 15:28N 33°44' W 118°13'0 0.0
2018-Apr-20 14:58N 33°44' W 118°13'0 0.0
2018-Apr-20 14:28N 33°44' W 118°13'0 0.1
2018-Apr-20 13:58N 33°44' W 118°13'0 0.1
2018-Apr-20 13:28N 33°44' W 118°13'0 0.0
2018-Apr-20 12:58N 33°44' W 118°13'0 0.0
2018-Apr-20 12:28N 33°44' W 118°13'0 0.2
2018-Apr-20 11:55N 33°44' W 118°13'0 0.3
2018-Apr-20 11:28N 33°44' W 118°13'0 0.1
2018-Apr-20 10:58N 33°44' W 118°13'0 0.0
2018-Apr-20 10:28N 33°44' W 118°13'0 0.1
2018-Apr-20 09:58N 33°44' W 118°13'0 0.0
2018-Apr-20 09:28N 33°44' W 118°13'0 0.1
2018-Apr-20 08:58N 33°44' W 118°13'0 0.1
2018-Apr-20 08:28N 33°44' W 118°13'0 0.1
2018-Apr-20 07:58N 33°44' W 118°13'0 0.1
2018-Apr-20 07:28N 33°44' W 118°13'0 0.0
2018-Apr-20 06:58N 33°44' W 118°13'0 0.0
2018-Apr-20 06:28N 33°44' W 118°13'0 0.1
2018-Apr-20 05:58N 33°44' W 118°13'0 0.0
2018-Apr-20 05:28N 33°44' W 118°13'0 0.0
2018-Apr-20 04:58N 33°44' W 118°13'0 0.1
2018-Apr-20 04:28N 33°44' W 118°13'0 0.1
2018-Apr-20 03:58N 33°44' W 118°13'0 0.1
2018-Apr-20 03:28N 33°44' W 118°13'0 0.1
2018-Apr-20 02:58N 33°44' W 118°13'0 0.1
2018-Apr-20 02:28N 33°44' W 118°13'0 0.0
2018-Apr-20 01:58N 33°44' W 118°13'0 0.0
2018-Apr-20 01:28N 33°44' W 118°13'0 0.0
2018-Apr-20 00:58N 33°44' W 118°13'0 0.0
2018-Apr-20 00:28N 33°44' W 118°13'0 0.0
2018-Apr-19 23:58N 33°44' W 118°13'0 0.1
2018-Apr-19 23:28N 33°44' W 118°13'0 0.1
2018-Apr-19 22:58N 33°44' W 118°13'0 0.0
2018-Apr-19 22:28N 33°44' W 118°13'0 0.0
2018-Apr-19 21:52N 33°44' W 118°13'0 0.1
2018-Apr-19 21:28N 33°44' W 118°13'0 0.0
2018-Apr-19 20:49N 33°44' W 118°13'0 0.0
2018-Apr-19 20:28N 33°44' W 118°13'0 0.0
2018-Apr-19 19:58N 33°44' W 118°13'0 0.1
2018-Apr-19 19:28N 33°44' W 118°13'0 0.1
2018-Apr-19 18:58N 33°44' W 118°13'0 0.1
2018-Apr-19 18:28N 33°44' W 118°13'0 0.1
2018-Apr-19 17:58N 33°44' W 118°13'0 0.1
2018-Apr-19 17:22N 33°44' W 118°13'0 0.0
2018-Apr-19 16:58N 33°44' W 118°13'0 0.3
2018-Apr-19 16:28N 33°44' W 118°13'0 0.3
2018-Apr-19 15:58N 33°44' W 118°13'0 0.1
2018-Apr-19 15:28N 33°44' W 118°13'0 0.1
2018-Apr-19 14:55N 33°44' W 118°13'0 0.0
2018-Apr-19 14:25N 33°44' W 118°13'0 0.0
2018-Apr-19 13:58N 33°44' W 118°13'0 0.0
2018-Apr-19 13:25N 33°44' W 118°13'0 0.0
2018-Apr-19 12:37N 33°44' W 118°13'0 0.0
2018-Apr-19 09:22N 33°44' W 118°13'0 0.1
2018-Apr-19 08:58N 33°44' W 118°13'0 0.0
2018-Apr-19 08:22N 33°44' W 118°13'0 0.1
2018-Apr-19 07:58N 33°44' W 118°13'0 0.0
2018-Apr-19 07:25N 33°44' W 118°13'0 0.0
2018-Apr-19 06:55N 33°44' W 118°13'0 0.0
2018-Apr-19 06:25N 33°44' W 118°13'0 0.0
2018-Apr-19 05:55N 33°44' W 118°13'0 0.1
2018-Apr-19 05:25N 33°44' W 118°13'0 0.1
2018-Apr-19 04:58N 33°44' W 118°13'0 0.1
2018-Apr-19 04:28N 33°44' W 118°13'0 0.1
2018-Apr-19 03:58N 33°44' W 118°13'0 0.0
2018-Apr-19 03:25N 33°44' W 118°13'0 0.0
2018-Apr-19 02:58N 33°44' W 118°13'0 0.0
2018-Apr-19 02:28N 33°44' W 118°13'0 0.0
2018-Apr-19 01:58N 33°44' W 118°13'0 0.0
2018-Apr-19 01:28N 33°44' W 118°13'0 0.0
2018-Apr-19 00:58N 33°44' W 118°13'0 0.0
2018-Apr-19 00:28N 33°44' W 118°13'0 0.0
2018-Apr-18 23:58N 33°44' W 118°13'0 0.0
2018-Apr-18 23:28N 33°44' W 118°13'0 0.0
2018-Apr-18 22:58N 33°44' W 118°13'0 0.0
2018-Apr-18 22:28N 33°44' W 118°13'0 0.0
2018-Apr-18 21:58N 33°44' W 118°13'0 0.0
2018-Apr-18 21:28N 33°44' W 118°13'0 0.3
2018-Apr-18 21:00N 33°44' W 118°13'1 2.1
2018-Apr-18 20:31N 33°45' W 118°13'0 0.8
2018-Apr-18 20:00N 33°45' W 118°13'0 0.0
2018-Apr-18 19:29N 33°45' W 118°13'0 0.0
2018-Apr-18 18:59N 33°45' W 118°13'0 0.0
2018-Apr-18 18:20N 33°45' W 118°13'0 0.0
2018-Apr-18 17:14N 33°45' W 118°13'0 0.0
2018-Apr-18 16:38N 33°45' W 118°13'0 0.0
2018-Apr-18 16:26N 33°45' W 118°13'0 0.0
2018-Apr-18 15:59N 33°45' W 118°13'0 0.0
2018-Apr-18 15:29N 33°45' W 118°13'0 0.0
2018-Apr-18 14:59N 33°45' W 118°13'0 0.0
2018-Apr-18 14:29N 33°45' W 118°13'0 0.0
2018-Apr-18 13:56N 33°45' W 118°13'0 0.0
2018-Apr-18 13:20N 33°45' W 118°13'0 0.0
2018-Apr-18 11:20N 33°45' W 118°13'0 0.0
2018-Apr-18 02:32N 33°45' W 118°13'0 0.0
2018-Apr-18 02:26N 33°45' W 118°13'0 0.0
2018-Apr-18 01:56N 33°45' W 118°13'0 0.0
2018-Apr-18 01:26N 33°45' W 118°13'0 0.0
2018-Apr-18 00:56N 33°45' W 118°13'0 0.0
2018-Apr-18 00:29N 33°45' W 118°13'0 0.0
2018-Apr-17 23:59N 33°45' W 118°13'0 0.0
2018-Apr-17 23:29N 33°45' W 118°13'0 0.0
2018-Apr-17 22:59N 33°45' W 118°13'0 0.0
2018-Apr-17 22:26N 33°45' W 118°13'0 0.0
2018-Apr-17 21:56N 33°45' W 118°13'0 0.0
2018-Apr-17 21:29N 33°45' W 118°13'0 0.0
2018-Apr-17 20:56N 33°45' W 118°13'0 0.0
2018-Apr-17 20:29N 33°45' W 118°13'0 0.0
2018-Apr-17 19:50N 33°45' W 118°13'0 0.0
2018-Apr-17 19:29N 33°45' W 118°13'0 0.0
2018-Apr-17 18:59N 33°45' W 118°13'0 0.0
2018-Apr-17 18:14N 33°45' W 118°13'0 0.0
2018-Apr-17 17:53N 33°45' W 118°13'0 0.0
2018-Apr-17 17:30N 33°45' W 118°13'1 1.1
2018-Apr-17 17:00N 33°45' W 118°13'2 3.7
2018-Apr-17 16:30N 33°44' W 118°11'3 6.1
2018-Apr-17 16:00N 33°41' W 118°11'4 8.4
2018-Apr-17 15:30N 33°37' W 118°13'610.6
2018-Apr-17 14:59N 33°36' W 118°19'611.8
2018-Apr-17 14:27N 33°36' W 118°27'511.8
2018-Apr-17 14:00N 33°36' W 118°33'611.9
2018-Apr-17 13:30N 33°36' W 118°40'611.8
2018-Apr-17 13:00N 33°37' W 118°47'611.9
2018-Apr-17 12:30N 33°37' W 118°54'611.8
2018-Apr-17 12:00N 33°38' W 119°01'612.2
2018-Apr-17 11:30N 33°38' W 119°09'714.2
2018-Apr-17 10:58N 33°38' W 119°18'714.4
2018-Apr-17 10:30N 33°38' W 119°26'714.2
2018-Apr-17 10:00N 33°38' W 119°34'713.6
2018-Apr-17 09:30N 33°38' W 119°43'713.9
2018-Apr-17 09:00N 33°38' W 119°51'714.4
2018-Apr-17 08:30N 33°38' W 119°60'714.1
2018-Apr-17 08:00N 33°38' W 120°08'714.2
2018-Apr-17 07:29N 33°38' W 120°17'714.0
2018-Apr-17 07:00N 33°38' W 120°25'714.0
2018-Apr-17 06:30N 33°38' W 120°33'714.1
2018-Apr-17 06:00N 33°38' W 120°42'714.3
2018-Apr-17 05:29N 33°38' W 120°51'714.1
2018-Apr-17 05:00N 33°38' W 120°59'714.0
2018-Apr-17 04:30N 33°38' W 121°07'  
Track history (hours):
 
Tides and Currents Weather Stations Pressure Air Temp Water Temp Dewpoint Dewpoint Depression Visibility Wind Speed Wind Dir Waves Ship Positions

Alaskan Frontier

Owner: ALASKA TANKER COMPANY, Beaverton, OR. More information available from US FCC via Universal Licensing System and Coast Guard Vessel Documentation Center.

Last reported at 2018-Apr-26 10:56 UTC. Time now 2018-Apr-26 11:15 UTC.
Position N 48°36' W 122°34'.

Type: Tanker. MMSI: 366948190.

Date/timePositionNaut miles runAvg speedWind from/ knotsBaromVisibWave heightAir tempDewpointWater temp
2018-Apr-26 10:56N 48°36' W 122°34'0 0.2
2018-Apr-26 10:26N 48°36' W 122°34'0 0.2
2018-Apr-26 09:47N 48°36' W 122°34'0 0.1
2018-Apr-26 09:23N 48°36' W 122°34'0 0.1
2018-Apr-26 08:38N 48°36' W 122°34'0 0.1
2018-Apr-26 08:17N 48°36' W 122°34'0 0.1
2018-Apr-26 07:59N 48°36' W 122°34'0 0.1
2018-Apr-26 07:29N 48°36' W 122°34'0 0.1
2018-Apr-26 06:59N 48°36' W 122°34'0 0.0
2018-Apr-26 06:29N 48°36' W 122°34'0 0.0
2018-Apr-26 05:53N 48°36' W 122°34'0 0.1
2018-Apr-26 05:29N 48°36' W 122°34'0 0.1
2018-Apr-26 04:59N 48°36' W 122°34'0 0.1
2018-Apr-26 04:29N 48°36' W 122°34'0 0.1
2018-Apr-26 03:53N 48°36' W 122°34'0 0.0
2018-Apr-26 03:29N 48°36' W 122°34'0 0.1
2018-Apr-26 02:59N 48°36' W 122°34'0 0.0
2018-Apr-26 02:29N 48°36' W 122°34'0 0.0
2018-Apr-26 01:53N 48°36' W 122°34'0 0.0
2018-Apr-26 01:29N 48°36' W 122°34'0 0.0
2018-Apr-26 00:59N 48°36' W 122°34'0 0.1
2018-Apr-26 00:26N 48°36' W 122°34'0 0.0
2018-Apr-25 23:59N 48°36' W 122°34'0 0.0
2018-Apr-25 23:02N 48°36' W 122°34'0 0.3
2018-Apr-25 22:53N 48°36' W 122°34'0 0.1
2018-Apr-25 22:23N 48°36' W 122°34'0 0.1
2018-Apr-25 21:53N 48°36' W 122°34'0 0.0
2018-Apr-25 21:29N 48°36' W 122°34'0 0.0
2018-Apr-25 20:59N 48°36' W 122°34'0 0.0
2018-Apr-25 20:29N 48°36' W 122°34'0 0.0
2018-Apr-25 19:59N 48°36' W 122°34'0 0.0
2018-Apr-25 19:29N 48°36' W 122°34'0 0.0
2018-Apr-25 18:56N 48°36' W 122°34'0 0.0
2018-Apr-25 18:29N 48°36' W 122°34'0 0.1
2018-Apr-25 17:59N 48°36' W 122°34'0 0.1
2018-Apr-25 17:02N 48°36' W 122°34'0 0.0
2018-Apr-25 16:47N 48°36' W 122°34'0 0.0
2018-Apr-25 16:29N 48°36' W 122°34'0 0.1
2018-Apr-25 15:59N 48°36' W 122°34'0 0.1
2018-Apr-25 15:23N 48°36' W 122°34'0 0.1
2018-Apr-25 14:56N 48°36' W 122°34'0 0.0
2018-Apr-25 14:26N 48°36' W 122°34'0 0.0
2018-Apr-25 13:59N 48°36' W 122°34'0 0.0
2018-Apr-25 13:23N 48°36' W 122°34'0 0.0
2018-Apr-25 12:53N 48°36' W 122°34'0 0.0
2018-Apr-25 12:29N 48°36' W 122°34'0 0.1
2018-Apr-25 11:59N 48°36' W 122°34'0 0.0
2018-Apr-25 11:29N 48°36' W 122°34'0 0.1
2018-Apr-25 10:59N 48°36' W 122°34'0 0.1
2018-Apr-25 10:29N 48°36' W 122°34'0 0.2
2018-Apr-25 09:59N 48°36' W 122°34'0 0.2
2018-Apr-25 09:26N 48°36' W 122°34'0 0.3
2018-Apr-25 08:44N 48°36' W 122°34'0 0.0
2018-Apr-25 08:20N 48°36' W 122°34'0 0.2
2018-Apr-25 07:44N 48°36' W 122°34'0 0.3
2018-Apr-25 07:29N 48°36' W 122°34'0 0.2
2018-Apr-25 06:53N 48°36' W 122°34'0 0.2
2018-Apr-25 06:29N 48°36' W 122°34'0 0.1
2018-Apr-25 05:59N 48°36' W 122°34'0 0.1
2018-Apr-25 05:23N 48°36' W 122°34'0 0.0
2018-Apr-25 04:59N 48°36' W 122°34'0 0.1
2018-Apr-25 04:11N 48°36' W 122°34'0 0.0
2018-Apr-25 03:59N 48°36' W 122°34'0 0.4
2018-Apr-25 03:29N 48°36' W 122°34'0 1.0
2018-Apr-25 03:00N 48°37' W 122°35'3 5.6
2018-Apr-25 02:30N 48°38' W 122°38'4 8.4
2018-Apr-25 02:00N 48°37' W 122°45'5 9.7
2018-Apr-25 01:30N 48°32' W 122°45'5 9.5
2018-Apr-25 01:00N 48°28' W 122°45'4 8.4
2018-Apr-25 00:30N 48°24' W 122°48'611.3
2018-Apr-25 00:00N 48°21' W 122°55'711.3
2018-Apr-24 23:24N 48°17' W 123°04'612.6
2018-Apr-24 22:54N 48°14' W 123°12'613.5
2018-Apr-24 22:26N 48°11' W 123°20'7 9.7
2018-Apr-24 21:41N 48°13' W 123°31'512.5
2018-Apr-24 21:19N 48°13' W 123°38'413.4
2018-Apr-24 20:59N 48°13' W 123°44'713.7
2018-Apr-24 20:30N 48°13' W 123°54'713.9
2018-Apr-24 20:00N 48°16' W 124°04'714.2
2018-Apr-24 19:30N 48°19' W 124°13'714.3
2018-Apr-24 19:00N 48°22' W 124°23'714.1
2018-Apr-24 18:30N 48°25' W 124°33'713.6
2018-Apr-24 18:00N 48°28' W 124°42'713.3
2018-Apr-24 17:30N 48°28' W 124°52'713.8
2018-Apr-24 16:59N 48°28' W 125°03'714.2
2018-Apr-24 16:30N 48°28' W 125°14'714.0
2018-Apr-24 16:00N 48°25' W 125°23'714.0
2018-Apr-24 15:30N 48°22' W 125°32'713.7
2018-Apr-24 15:00N 48°19' W 125°42'714.2
2018-Apr-24 14:30N 48°14' W 125°50'714.1
2018-Apr-24 14:00N 48°09' W 125°56'1013.7
2018-Apr-24 13:17N 47°59' W 125°56'515.5
2018-Apr-24 12:59N 47°54' W 125°56'2115.4
2018-Apr-24 11:39N 47°33' W 125°56'215.5
2018-Apr-24 11:31N 47°31' W 125°56'1115.3
2018-Apr-24 10:45N 47°20' W 125°56'515.2
2018-Apr-24 10:28N 47°15' W 125°56'715.1
2018-Apr-24 10:00N 47°08' W 125°56'714.9
2018-Apr-24 09:30N 47°01' W 125°56'714.7
2018-Apr-24 09:00N 46°53' W 125°56'714.5
2018-Apr-24 08:30N 46°46' W 125°56'714.4
2018-Apr-24 08:00N 46°39' W 125°56'714.5
2018-Apr-24 07:30N 46°32' W 125°56'714.5
2018-Apr-24 07:01N 46°25' W 125°56'714.6
2018-Apr-24 06:31N 46°17' W 125°56'714.6
2018-Apr-24 06:00N 46°10' W 125°56'714.3
2018-Apr-24 05:30N 46°03' W 125°57'714.3
2018-Apr-24 05:01N 45°56' W 125°58'814.1
2018-Apr-24 04:26N 45°48' W 125°57'614.2
2018-Apr-24 04:01N 45°42' W 125°56'714.4
2018-Apr-24 03:30N 45°34' W 125°56'714.4
2018-Apr-24 03:00N 45°27' W 125°56'714.5
2018-Apr-24 02:31N 45°20' W 125°56'714.7
2018-Apr-24 02:00N 45°13' W 125°56'714.8
2018-Apr-24 01:30N 45°05' W 125°56'1015.0
2018-Apr-24 00:52N 44°56' W 125°56'514.9
2018-Apr-24 00:30N 44°50' W 125°56'815.2
2018-Apr-24 00:01N 44°43' W 125°56'815.2
2018-Apr-23 23:31N 44°35' W 125°56'16114.0
2018-Apr-23 12:00N 41°54' W 125°54'1615.0 020 / 341014.610.8 11.0 9.011.5
2018-Apr-23 10:56N 41°38' W 125°56'19012.0
2018-Apr-22 19:08N 38°32' W 125°11'1111.6
2018-Apr-22 18:14N 38°22' W 125°07'311.3
2018-Apr-22 18:00N 38°19' W 125°06'611.5
2018-Apr-22 17:30N 38°14' W 125°04'611.2
2018-Apr-22 16:59N 38°08' W 125°01'611.5
2018-Apr-22 16:30N 38°03' W 124°58'611.6
2018-Apr-22 16:00N 37°58' W 124°54'711.7
2018-Apr-22 15:24N 37°52' W 124°50'512.0
2018-Apr-22 15:00N 37°48' W 124°47'612.0
2018-Apr-22 14:30N 37°43' W 124°43'611.7
2018-Apr-22 14:00N 37°38' W 124°39'611.4
2018-Apr-22 13:30N 37°33' W 124°36'611.9
2018-Apr-22 13:00N 37°28' W 124°32'612.0
2018-Apr-22 12:30N 37°23' W 124°28'612.1
2018-Apr-22 12:00N 37°17' W 124°25'8485.6
2018-Apr-22 12:00N 37°24' W 124°30'1428.8 1015.710.8 14.012.012.0
2018-Apr-22 11:30N 37°12' W 124°21'612.2
2018-Apr-22 11:00N 37°07' W 124°17'612.1
2018-Apr-22 10:30N 37°01' W 124°13'712.4
2018-Apr-22 09:58N 36°56' W 124°09'611.9
2018-Apr-22 09:27N 36°50' W 124°05'511.8
2018-Apr-22 09:00N 36°46' W 124°02'612.1
2018-Apr-22 08:30N 36°41' W 123°58'612.1
2018-Apr-22 07:59N 36°35' W 123°55'612.4
2018-Apr-22 07:30N 36°30' W 123°51'612.8
2018-Apr-22 07:00N 36°24' W 123°47'612.4
2018-Apr-22 06:30N 36°19' W 123°43'612.4
2018-Apr-22 06:00N 36°14' W 123°39'612.2
2018-Apr-22 05:30N 36°09' W 123°35'612.0
2018-Apr-22 05:00N 36°04' W 123°31'612.4
2018-Apr-22 04:30N 35°59' W 123°26'612.4
2018-Apr-22 04:00N 35°54' W 123°21'711.3
2018-Apr-22 03:26N 35°48' W 123°19'511.6
2018-Apr-22 03:00N 35°43' W 123°18'713.0
2018-Apr-22 02:29N 35°37' W 123°14'613.3
2018-Apr-22 02:00N 35°31' W 123°10'913.0
2018-Apr-22 01:20N 35°24' W 123°04'412.8
2018-Apr-22 01:00N 35°20' W 123°01'712.5
2018-Apr-22 00:26N 35°15' W 122°56'510.6
2018-Apr-21 23:58N 35°11' W 122°53'510.6
2018-Apr-21 23:30N 35°07' W 122°49'610.7
2018-Apr-21 22:54N 35°01' W 122°45'410.6
2018-Apr-21 22:30N 34°58' W 122°42'710.9
2018-Apr-21 21:52N 34°52' W 122°37'411.1
2018-Apr-21 21:30N 34°49' W 122°34'611.1
2018-Apr-21 21:01N 34°45' W 122°30'3197.4
2018-Apr-21 21:00N 34°48' W 122°30'817.6 360 / 191017.9 5.4 13.9 14.4
2018-Apr-21 20:30N 34°40' W 122°26'611.1
2018-Apr-21 20:00N 34°36' W 122°22'611.2
2018-Apr-21 19:30N 34°31' W 122°18'611.2
2018-Apr-21 19:00N 34°26' W 122°14'1511.8
2018-Apr-21 17:46N 34°15' W 122°04'411.9
2018-Apr-21 17:23N 34°11' W 122°01'512.0
2018-Apr-21 16:59N 34°07' W 121°57'612.0
2018-Apr-21 16:30N 34°02' W 121°53'712.5
2018-Apr-21 15:58N 33°57' W 121°49'613.7
2018-Apr-21 15:30N 33°52' W 121°44'713.6
2018-Apr-21 15:00N 33°46' W 121°39'713.1
2018-Apr-21 14:30N 33°41' W 121°34'714.0
2018-Apr-21 14:00N 33°41' W 121°26'714.0
2018-Apr-21 13:30N 33°41' W 121°18'714.0
2018-Apr-21 13:00N 33°41' W 121°09'713.9
2018-Apr-21 12:29N 33°41' W 121°00'713.7
2018-Apr-21 12:00N 33°41' W 120°53'713.4
2018-Apr-21 11:30N 33°41' W 120°45'713.9
2018-Apr-21 10:59N 33°41' W 120°36'714.0
2018-Apr-21 10:29N 33°41' W 120°28'714.2
2018-Apr-21 10:00N 33°41' W 120°19'814.1
2018-Apr-21 09:28N 33°41' W 120°10'715.0
2018-Apr-21 08:59N 33°41' W 120°01'815.4
2018-Apr-21 08:28N 33°41' W 119°52'815.5
2018-Apr-21 07:59N 33°41' W 119°43'815.3
2018-Apr-21 07:29N 33°41' W 119°34'715.8
2018-Apr-21 07:01N 33°41' W 119°25'815.6
2018-Apr-21 06:30N 33°41' W 119°15'815.2
2018-Apr-21 06:01N 33°41' W 119°06'612.1
2018-Apr-21 05:30N 33°41' W 118°59'611.7
2018-Apr-21 04:58N 33°41' W 118°51'612.0
2018-Apr-21 04:29N 33°40' W 118°44'612.0
2018-Apr-21 04:00N 33°39' W 118°38'611.6
2018-Apr-21 03:30N 33°39' W 118°31'612.0
2018-Apr-21 02:59N 33°38' W 118°23'611.8
2018-Apr-21 02:30N 33°38' W 118°17'5 9.6
2018-Apr-21 02:00N 33°41' W 118°11'3 6.2
2018-Apr-21 01:30N 33°44' W 118°12'0 0.8
2018-Apr-21 00:58N 33°44' W 118°13'0 0.0
2018-Apr-21 00:28N 33°44' W 118°13'0 0.0
2018-Apr-20 23:58N 33°44' W 118°13'0 0.0
2018-Apr-20 23:28N 33°44' W 118°13'0 0.0
2018-Apr-20 22:58N 33°44' W 118°13'0 0.0
2018-Apr-20 22:28N 33°44' W 118°13'0 0.1
2018-Apr-20 21:58N 33°44' W 118°13'0 0.0
2018-Apr-20 21:28N 33°44' W 118°13'0 0.1
2018-Apr-20 20:58N 33°44' W 118°13'0 0.1
2018-Apr-20 20:28N 33°44' W 118°13'0 0.0
2018-Apr-20 19:55N 33°44' W 118°13'0 0.3
2018-Apr-20 19:25N 33°44' W 118°13'0 0.0
2018-Apr-20 18:58N 33°44' W 118°13'0 0.3
2018-Apr-20 18:28N 33°44' W 118°13'0 0.1
2018-Apr-20 17:58N 33°44' W 118°13'0 0.0
2018-Apr-20 17:28N 33°44' W 118°13'0 0.0
2018-Apr-20 16:58N 33°44' W 118°13'0 0.0
2018-Apr-20 16:28N 33°44' W 118°13'0 0.0
2018-Apr-20 15:58N 33°44' W 118°13'0 0.0
2018-Apr-20 15:28N 33°44' W 118°13'0 0.0
2018-Apr-20 14:58N 33°44' W 118°13'0 0.0
2018-Apr-20 14:28N 33°44' W 118°13'0 0.1
2018-Apr-20 13:58N 33°44' W 118°13'0 0.1
2018-Apr-20 13:28N 33°44' W 118°13'0 0.0
2018-Apr-20 12:58N 33°44' W 118°13'0 0.0
2018-Apr-20 12:28N 33°44' W 118°13'0 0.2
2018-Apr-20 11:55N 33°44' W 118°13'0 0.3
2018-Apr-20 11:28N 33°44' W 118°13'0 0.1
2018-Apr-20 10:58N 33°44' W 118°13'0 0.0
2018-Apr-20 10:28N 33°44' W 118°13'0 0.1
2018-Apr-20 09:58N 33°44' W 118°13'0 0.0
2018-Apr-20 09:28N 33°44' W 118°13'0 0.1
2018-Apr-20 08:58N 33°44' W 118°13'0 0.1
2018-Apr-20 08:28N 33°44' W 118°13'0 0.1
2018-Apr-20 07:58N 33°44' W 118°13'0 0.1
2018-Apr-20 07:28N 33°44' W 118°13'0 0.0
2018-Apr-20 06:58N 33°44' W 118°13'0 0.0
2018-Apr-20 06:28N 33°44' W 118°13'0 0.1
2018-Apr-20 05:58N 33°44' W 118°13'0 0.0
2018-Apr-20 05:28N 33°44' W 118°13'0 0.0
2018-Apr-20 04:58N 33°44' W 118°13'0 0.1
2018-Apr-20 04:28N 33°44' W 118°13'0 0.1
2018-Apr-20 03:58N 33°44' W 118°13'0 0.1
2018-Apr-20 03:28N 33°44' W 118°13'0 0.1
2018-Apr-20 02:58N 33°44' W 118°13'0 0.1
2018-Apr-20 02:28N 33°44' W 118°13'0 0.0
2018-Apr-20 01:58N 33°44' W 118°13'0 0.0
2018-Apr-20 01:28N 33°44' W 118°13'0 0.0
2018-Apr-20 00:58N 33°44' W 118°13'0 0.0
2018-Apr-20 00:28N 33°44' W 118°13'0 0.0
2018-Apr-19 23:58N 33°44' W 118°13'0 0.1
2018-Apr-19 23:28N 33°44' W 118°13'0 0.1
2018-Apr-19 22:58N 33°44' W 118°13'0 0.0
2018-Apr-19 22:28N 33°44' W 118°13'0 0.0
2018-Apr-19 21:52N 33°44' W 118°13'0 0.1
2018-Apr-19 21:28N 33°44' W 118°13'0 0.0
2018-Apr-19 20:49N 33°44' W 118°13'0 0.0
2018-Apr-19 20:28N 33°44' W 118°13'0 0.0
2018-Apr-19 19:58N 33°44' W 118°13'0 0.1
2018-Apr-19 19:28N 33°44' W 118°13'0 0.1
2018-Apr-19 18:58N 33°44' W 118°13'0 0.1
2018-Apr-19 18:28N 33°44' W 118°13'0 0.1
2018-Apr-19 17:58N 33°44' W 118°13'0 0.1
2018-Apr-19 17:22N 33°44' W 118°13'0 0.0
2018-Apr-19 16:58N 33°44' W 118°13'0 0.3
2018-Apr-19 16:28N 33°44' W 118°13'0 0.3
2018-Apr-19 15:58N 33°44' W 118°13'0 0.1
2018-Apr-19 15:28N 33°44' W 118°13'0 0.1
2018-Apr-19 14:55N 33°44' W 118°13'0 0.0
2018-Apr-19 14:25N 33°44' W 118°13'0 0.0
2018-Apr-19 13:58N 33°44' W 118°13'0 0.0
2018-Apr-19 13:25N 33°44' W 118°13'0 0.0
2018-Apr-19 12:37N 33°44' W 118°13'0 0.0
2018-Apr-19 09:22N 33°44' W 118°13'0 0.1
2018-Apr-19 08:58N 33°44' W 118°13'0 0.0
2018-Apr-19 08:22N 33°44' W 118°13'0 0.1
2018-Apr-19 07:58N 33°44' W 118°13'0 0.0
2018-Apr-19 07:25N 33°44' W 118°13'0 0.0
2018-Apr-19 06:55N 33°44' W 118°13'0 0.0
2018-Apr-19 06:25N 33°44' W 118°13'0 0.0
2018-Apr-19 05:55N 33°44' W 118°13'0 0.1
2018-Apr-19 05:25N 33°44' W 118°13'0 0.1
2018-Apr-19 04:58N 33°44' W 118°13'0 0.1
2018-Apr-19 04:28N 33°44' W 118°13'0 0.1
2018-Apr-19 03:58N 33°44' W 118°13'0 0.0
2018-Apr-19 03:25N 33°44' W 118°13'0 0.0
2018-Apr-19 02:58N 33°44' W 118°13'0 0.0
2018-Apr-19 02:28N 33°44' W 118°13'0 0.0
2018-Apr-19 01:58N 33°44' W 118°13'0 0.0
2018-Apr-19 01:28N 33°44' W 118°13'0 0.0
2018-Apr-19 00:58N 33°44' W 118°13'0 0.0
2018-Apr-19 00:28N 33°44' W 118°13'0 0.0
2018-Apr-18 23:58N 33°44' W 118°13'0 0.0
2018-Apr-18 23:28N 33°44' W 118°13'0 0.0
2018-Apr-18 22:58N 33°44' W 118°13'0 0.0
2018-Apr-18 22:28N 33°44' W 118°13'0 0.0
2018-Apr-18 21:58N 33°44' W 118°13'0 0.0
2018-Apr-18 21:28N 33°44' W 118°13'0 0.3
2018-Apr-18 21:00N 33°44' W 118°13'1 2.1
2018-Apr-18 20:31N 33°45' W 118°13'0 0.8
2018-Apr-18 20:00N 33°45' W 118°13'0 0.0
2018-Apr-18 19:29N 33°45' W 118°13'0 0.0
2018-Apr-18 18:59N 33°45' W 118°13'0 0.0
2018-Apr-18 18:20N 33°45' W 118°13'0 0.0
2018-Apr-18 17:14N 33°45' W 118°13'0 0.0
2018-Apr-18 16:38N 33°45' W 118°13'0 0.0
2018-Apr-18 16:26N 33°45' W 118°13'0 0.0
2018-Apr-18 15:59N 33°45' W 118°13'0 0.0
2018-Apr-18 15:29N 33°45' W 118°13'0 0.0
2018-Apr-18 14:59N 33°45' W 118°13'0 0.0
2018-Apr-18 14:29N 33°45' W 118°13'0 0.0
2018-Apr-18 13:56N 33°45' W 118°13'0 0.0
2018-Apr-18 13:20N 33°45' W 118°13'0 0.0
2018-Apr-18 11:20N 33°45' W 118°13'0 0.0
2018-Apr-18 02:32N 33°45' W 118°13'0 0.0
2018-Apr-18 02:26N 33°45' W 118°13'0 0.0
2018-Apr-18 01:56N 33°45' W 118°13'0 0.0
2018-Apr-18 01:26N 33°45' W 118°13'0 0.0
2018-Apr-18 00:56N 33°45' W 118°13'0 0.0
2018-Apr-18 00:29N 33°45' W 118°13'0 0.0
2018-Apr-17 23:59N 33°45' W 118°13'0 0.0
2018-Apr-17 23:29N 33°45' W 118°13'0 0.0
2018-Apr-17 22:59N 33°45' W 118°13'0 0.0
2018-Apr-17 22:26N 33°45' W 118°13'0 0.0
2018-Apr-17 21:56N 33°45' W 118°13'0 0.0
2018-Apr-17 21:29N 33°45' W 118°13'0 0.0
2018-Apr-17 20:56N 33°45' W 118°13'0 0.0
2018-Apr-17 20:29N 33°45' W 118°13'0 0.0
2018-Apr-17 19:50N 33°45' W 118°13'0 0.0
2018-Apr-17 19:29N 33°45' W 118°13'0 0.0
2018-Apr-17 18:59N 33°45' W 118°13'0 0.0
2018-Apr-17 18:14N 33°45' W 118°13'0 0.0
2018-Apr-17 17:53N 33°45' W 118°13'0 0.0
2018-Apr-17 17:30N 33°45' W 118°13'1 1.1
2018-Apr-17 17:00N 33°45' W 118°13'2 3.7
2018-Apr-17 16:30N 33°44' W 118°11'3 6.1
2018-Apr-17 16:00N 33°41' W 118°11'4 8.4
2018-Apr-17 15:30N 33°37' W 118°13'610.6
2018-Apr-17 14:59N 33°36' W 118°19'611.8
2018-Apr-17 14:27N 33°36' W 118°27'511.8
2018-Apr-17 14:00N 33°36' W 118°33'611.9
2018-Apr-17 13:30N 33°36' W 118°40'611.8
2018-Apr-17 13:00N 33°37' W 118°47'611.9
2018-Apr-17 12:30N 33°37' W 118°54'611.8
2018-Apr-17 12:00N 33°38' W 119°01'612.2
2018-Apr-17 11:30N 33°38' W 119°09'714.2
2018-Apr-17 10:58N 33°38' W 119°18'714.4
2018-Apr-17 10:30N 33°38' W 119°26'714.2
2018-Apr-17 10:00N 33°38' W 119°34'713.6
2018-Apr-17 09:30N 33°38' W 119°43'713.9
2018-Apr-17 09:00N 33°38' W 119°51'714.4
2018-Apr-17 08:30N 33°38' W 119°60'714.1
2018-Apr-17 08:00N 33°38' W 120°08'714.2
2018-Apr-17 07:29N 33°38' W 120°17'714.0
2018-Apr-17 07:00N 33°38' W 120°25'714.0
2018-Apr-17 06:30N 33°38' W 120°33'714.1
2018-Apr-17 06:00N 33°38' W 120°42'714.3
2018-Apr-17 05:29N 33°38' W 120°51'714.1
2018-Apr-17 05:00N 33°38' W 120°59'714.0
2018-Apr-17 04:30N 33°38' W 121°07'  

Dump ship's entire track history